createdAt,value
2023-09-06T00:02:18.659Z,100150.69
2023-09-06T00:04:45.081Z,100148.95
2023-09-06T00:07:11.614Z,100144.07
2023-09-06T00:09:37.879Z,100146.73
2023-09-06T00:12:04.163Z,100146.59
2023-09-06T00:14:30.420Z,100144.54
2023-09-06T00:16:56.830Z,100146.81
2023-09-06T00:19:25.205Z,100147.03
2023-09-06T00:21:51.770Z,100149.54
2023-09-06T00:24:20.196Z,100149.00
2023-09-06T00:26:46.456Z,100148.48
2023-09-06T00:29:12.732Z,100152.34
2023-09-06T00:31:39.063Z,100157.83
2023-09-06T00:34:05.411Z,100156.45
2023-09-06T00:36:33.475Z,100156.48
2023-09-06T00:38:59.712Z,100159.16
2023-09-06T00:41:25.997Z,100156.86
2023-09-06T00:43:52.306Z,100155.31
2023-09-06T00:46:18.573Z,100156.92
2023-09-06T00:48:44.947Z,100157.11
2023-09-06T00:51:11.193Z,100153.45
2023-09-06T00:53:37.914Z,100152.45
2023-09-06T00:56:04.249Z,100156.86
2023-09-06T00:58:30.730Z,100157.22
2023-09-06T01:00:58.190Z,100150.09
2023-09-06T01:03:24.584Z,100151.00
2023-09-06T01:05:51.004Z,100151.01
2023-09-06T01:08:19.351Z,100146.63
2023-09-06T01:10:45.716Z,100150.52
2023-09-06T01:13:12.071Z,100148.08
2023-09-06T01:15:38.531Z,100148.78
2023-09-06T01:18:04.884Z,100151.61
2023-09-06T01:20:32.016Z,100152.16
2023-09-06T01:22:58.869Z,100153.08
2023-09-06T01:25:25.214Z,100149.41
2023-09-06T01:27:51.525Z,100155.56
2023-09-06T01:30:19.095Z,100155.56
2023-09-06T01:32:45.415Z,100159.98
2023-09-06T01:35:11.750Z,100161.91
2023-09-06T01:37:38.301Z,100161.91
2023-09-06T01:40:14.957Z,100157.38
2023-09-06T01:42:41.260Z,100152.48
2023-09-06T01:45:07.484Z,100147.41
2023-09-06T01:47:33.797Z,100145.14
2023-09-06T01:50:00.089Z,100138.80
2023-09-06T01:52:26.363Z,100137.93
2023-09-06T01:54:52.624Z,100138.27
2023-09-06T01:57:18.858Z,100134.77
2023-09-06T01:59:45.151Z,100140.04
2023-09-06T02:02:11.476Z,100136.37
2023-09-06T02:04:38.826Z,100140.23
2023-09-06T02:07:05.133Z,100139.02
2023-09-06T02:09:32.488Z,100137.99
2023-09-06T02:11:59.855Z,100140.27
2023-09-06T02:14:26.100Z,100137.27
2023-09-06T02:16:52.322Z,100130.63
2023-09-06T02:19:20.294Z,100135.71
2023-09-06T02:21:46.696Z,100130.42
2023-09-06T02:24:13.319Z,100127.98
2023-09-06T02:26:39.582Z,100126.60
2023-09-06T02:29:05.930Z,100123.45
2023-09-06T02:31:32.190Z,100123.30
2023-09-06T02:33:58.578Z,100125.07
2023-09-06T02:36:24.826Z,100123.48
2023-09-06T02:38:51.112Z,100128.07
2023-09-06T02:41:17.355Z,100127.20
2023-09-06T02:43:43.580Z,100126.35
2023-09-06T02:46:11.321Z,100123.91
2023-09-06T02:48:38.993Z,100122.52
2023-09-06T02:51:08.616Z,100116.24
2023-09-06T02:53:34.902Z,100118.00
2023-09-06T02:56:02.264Z,100119.77
2023-09-06T02:58:28.989Z,100122.06
2023-09-06T03:00:59.058Z,100126.09
2023-09-06T03:03:29.617Z,100131.19
2023-09-06T03:05:56.226Z,100134.02
2023-09-06T03:08:25.843Z,100131.91
2023-09-06T03:10:54.880Z,100131.76
2023-09-06T03:13:21.237Z,100133.33
2023-09-06T03:15:51.992Z,100127.91
2023-09-06T03:18:19.532Z,100133.71
2023-09-06T03:20:45.807Z,100131.11
2023-09-06T03:23:18.654Z,100136.00
2023-09-06T03:25:46.189Z,100134.59
2023-09-06T03:28:12.492Z,100137.06
2023-09-06T03:30:39.458Z,100138.30
2023-09-06T03:33:06.034Z,100140.08
2023-09-06T03:35:32.305Z,100143.96
2023-09-06T03:37:59.500Z,100142.94
2023-09-06T03:40:26.124Z,100144.71
2023-09-06T03:42:52.365Z,100143.51
2023-09-06T03:45:22.031Z,100145.98
2023-09-06T03:47:48.450Z,100148.77
2023-09-06T03:50:16.264Z,100146.85
2023-09-06T03:52:43.844Z,100142.47
2023-09-06T03:55:10.759Z,100142.28
2023-09-06T03:57:37.669Z,100144.40
2023-09-06T04:00:23.071Z,100146.00
2023-09-06T04:02:50.618Z,100145.66
2023-09-06T04:05:17.088Z,100147.94
2023-09-06T04:07:43.869Z,100151.63
2023-09-06T04:10:16.908Z,100153.23
2023-09-06T04:12:43.256Z,100152.89
2023-09-06T04:15:09.543Z,100151.67
2023-09-06T04:17:35.838Z,100157.63
2023-09-06T04:20:18.538Z,100161.16
2023-09-06T04:22:46.093Z,100159.75
2023-09-06T04:25:12.457Z,100159.77
2023-09-06T04:27:40.086Z,100160.29
2023-09-06T04:30:06.335Z,100163.27
2023-09-06T04:32:32.610Z,100162.94
2023-09-06T04:34:59.508Z,100163.96
2023-09-06T04:37:28.980Z,100164.14
2023-09-06T04:39:55.271Z,100168.34
2023-09-06T04:42:21.528Z,100167.63
2023-09-06T04:44:47.811Z,100166.92
2023-09-06T04:47:14.823Z,100167.44
2023-09-06T04:49:41.378Z,100171.29
2023-09-06T04:52:08.592Z,100174.43
2023-09-06T04:54:34.860Z,100169.17
2023-09-06T04:57:01.159Z,100165.98
2023-09-06T04:59:27.716Z,100169.82
2023-09-06T05:01:54.023Z,100166.11
2023-09-06T05:04:20.427Z,100165.40
2023-09-06T05:06:46.853Z,100163.63
2023-09-06T05:09:16.284Z,100165.18
2023-09-06T05:11:42.531Z,100166.59
2023-09-06T05:14:10.769Z,100167.77
2023-09-06T05:16:37.163Z,100168.09
2023-09-06T05:19:03.424Z,100165.45
2023-09-06T05:21:29.979Z,100170.16
2023-09-06T05:23:56.261Z,100176.96
2023-09-06T05:26:22.498Z,100179.92
2023-09-06T05:28:49.320Z,100181.48
2023-09-06T05:31:15.599Z,100186.19
2023-09-06T05:33:41.874Z,100186.31
2023-09-06T05:36:09.538Z,100183.45
2023-09-06T05:38:35.781Z,100180.95
2023-09-06T05:41:02.928Z,100180.39
2023-09-06T05:43:29.228Z,100187.88
2023-09-06T05:45:55.500Z,100188.19
2023-09-06T05:48:21.952Z,100190.58
2023-09-06T05:50:48.235Z,100191.02
2023-09-06T05:53:15.684Z,100188.34
2023-09-06T05:55:42.433Z,100190.05
2023-09-06T05:58:08.760Z,100189.13
2023-09-06T06:00:37.256Z,100193.81
2023-09-06T06:03:04.060Z,100193.76
2023-09-06T06:05:30.470Z,100196.52
2023-09-06T06:07:58.389Z,100190.63
2023-09-06T06:10:24.706Z,100193.02
2023-09-06T06:12:51.861Z,100196.31
2023-09-06T06:15:18.119Z,100204.37
2023-09-06T06:17:44.382Z,100206.60
2023-09-06T06:20:11.599Z,100199.54
2023-09-06T06:22:41.485Z,100198.27
2023-09-06T06:25:08.085Z,100197.80
2023-09-06T06:27:34.759Z,100195.77
2023-09-06T06:30:01.367Z,100200.12
2023-09-06T06:32:27.948Z,100203.08
2023-09-06T06:34:55.705Z,100198.44
2023-09-06T06:37:21.958Z,100199.10
2023-09-06T06:39:49.591Z,100200.10
2023-09-06T06:42:15.891Z,100198.27
2023-09-06T06:44:42.140Z,100199.04
2023-09-06T06:47:08.386Z,100197.17
2023-09-06T06:49:34.698Z,100196.77
2023-09-06T06:52:00.956Z,100195.98
2023-09-06T06:54:28.380Z,100197.64
2023-09-06T06:56:54.657Z,100201.58
2023-09-06T06:59:21.101Z,100198.48
2023-09-06T07:01:48.560Z,100197.90
2023-09-06T07:04:14.994Z,100196.72
2023-09-06T07:06:41.264Z,100199.80
2023-09-06T07:09:07.537Z,100204.52
2023-09-06T07:11:34.045Z,100203.27
2023-09-06T07:14:00.473Z,100207.27
2023-09-06T07:16:30.151Z,100203.98
2023-09-06T07:18:58.555Z,100204.23
2023-09-06T07:21:26.110Z,100202.54
2023-09-06T07:23:52.563Z,100206.80
2023-09-06T07:26:18.893Z,100205.27
2023-09-06T07:28:45.842Z,100209.59
2023-09-06T07:31:12.220Z,100204.04
2023-09-06T07:33:39.301Z,100202.02
2023-09-06T07:36:05.648Z,100199.13
2023-09-06T07:38:32.303Z,100196.06
2023-09-06T07:40:59.049Z,100197.90
2023-09-06T07:43:25.477Z,100196.25
2023-09-06T07:45:52.176Z,100195.29
2023-09-06T07:48:18.549Z,100196.79
2023-09-06T07:50:44.986Z,100195.33
2023-09-06T07:53:11.300Z,100191.89
2023-09-06T07:55:38.432Z,100197.90
2023-09-06T07:58:04.719Z,100192.67
2023-09-06T08:00:31.698Z,100192.23
2023-09-06T08:02:57.972Z,100190.89
2023-09-06T08:05:24.988Z,100190.10
2023-09-06T08:07:51.223Z,100185.39
2023-09-06T08:10:18.768Z,100188.43
2023-09-06T08:12:45.014Z,100186.71
2023-09-06T08:15:11.380Z,100188.55
2023-09-06T08:17:38.308Z,100186.64
2023-09-06T08:20:05.125Z,100187.59
2023-09-06T08:22:43.982Z,100180.95
2023-09-06T08:25:12.687Z,100183.96
2023-09-06T08:27:38.920Z,100185.67
2023-09-06T08:30:05.290Z,100191.84
2023-09-06T08:32:31.797Z,100192.52
2023-09-06T08:34:58.299Z,100195.05
2023-09-06T08:37:24.514Z,100194.71
2023-09-06T08:39:50.858Z,100189.57
2023-09-06T08:42:17.240Z,100185.67
2023-09-06T08:44:43.679Z,100187.80
2023-09-06T08:47:09.952Z,100188.88
2023-09-06T08:49:36.284Z,100194.04
2023-09-06T08:52:03.815Z,100191.98
2023-09-06T08:54:30.084Z,100189.91
2023-09-06T08:56:56.478Z,100187.28
2023-09-06T08:59:22.851Z,100183.77
2023-09-06T09:01:49.164Z,100183.63
2023-09-06T09:04:15.530Z,100183.45
2023-09-06T09:06:41.901Z,100182.72
2023-09-06T09:09:08.186Z,100182.83
2023-09-06T09:11:34.777Z,100180.80
2023-09-06T09:14:01.583Z,100179.70
2023-09-06T09:16:29.635Z,100181.53
2023-09-06T09:18:56.153Z,100184.80
2023-09-06T09:21:22.657Z,100184.02
2023-09-06T09:23:50.191Z,100190.84
2023-09-06T09:26:16.875Z,100185.81
2023-09-06T09:28:43.171Z,100181.27
2023-09-06T09:31:09.961Z,100182.20
2023-09-06T09:33:36.526Z,100185.54
2023-09-06T09:36:03.063Z,100186.61
2023-09-06T09:38:29.624Z,100183.77
2023-09-06T09:40:56.235Z,100186.08
2023-09-06T09:43:22.489Z,100181.64
2023-09-06T09:45:49.239Z,100185.05
2023-09-06T09:48:15.863Z,100182.73
2023-09-06T09:50:42.447Z,100184.38
2023-09-06T09:53:33.887Z,100183.53
2023-09-06T09:55:55.942Z,100183.31
2023-09-06T09:58:23.288Z,100181.90
2023-09-06T10:00:52.599Z,100178.05
2023-09-06T10:03:19.373Z,100180.48
2023-09-06T10:05:46.078Z,100182.42
2023-09-06T10:08:12.353Z,100180.40
2023-09-06T10:10:38.607Z,100173.59
2023-09-06T10:13:08.310Z,100173.69
2023-09-06T10:15:34.921Z,100176.79
2023-09-06T10:18:01.214Z,100171.70
2023-09-06T10:20:27.522Z,100167.10
2023-09-06T10:22:53.810Z,100166.80
2023-09-06T10:25:20.236Z,100166.55
2023-09-06T10:27:46.799Z,100171.51
2023-09-06T10:30:18.000Z,100173.81
2023-09-06T10:32:44.335Z,100173.38
2023-09-06T10:35:10.643Z,100170.77
2023-09-06T10:37:36.917Z,100175.59
2023-09-06T10:40:03.234Z,100174.67
2023-09-06T10:42:29.616Z,100170.92
2023-09-06T10:44:55.918Z,100170.38
2023-09-06T10:47:22.269Z,100169.11
2023-09-06T10:49:48.502Z,100169.01
2023-09-06T10:52:14.818Z,100171.14
2023-09-06T10:54:41.195Z,100172.30
2023-09-06T10:57:07.517Z,100163.70
2023-09-06T10:59:33.867Z,100169.37
2023-09-06T11:02:01.128Z,100165.44
2023-09-06T11:04:27.677Z,100166.59
2023-09-06T11:06:54.206Z,100165.52
2023-09-06T11:09:20.561Z,100167.05
2023-09-06T11:11:46.808Z,100166.95
2023-09-06T11:14:13.064Z,100164.48
2023-09-06T11:16:39.313Z,100160.42
2023-09-06T11:19:06.548Z,100156.44
2023-09-06T11:21:32.898Z,100155.63
2023-09-06T11:23:59.192Z,100158.00
2023-09-06T11:26:26.972Z,100156.27
2023-09-06T11:28:54.352Z,100153.59
2023-09-06T11:31:20.982Z,100150.12
2023-09-06T11:33:49.075Z,100151.41
2023-09-06T11:36:15.896Z,100152.96
2023-09-06T11:38:44.043Z,100152.00
2023-09-06T11:41:12.340Z,100149.90
2023-09-06T11:43:43.489Z,100145.16
2023-09-06T11:46:12.601Z,100144.69
2023-09-06T11:48:40.130Z,100140.21
2023-09-06T11:51:10.671Z,100143.48
2023-09-06T11:53:37.499Z,100140.55
2023-09-06T11:56:07.387Z,100141.92
2023-09-06T11:58:34.964Z,100143.06
2023-09-06T12:01:02.075Z,100139.40
2023-09-06T12:03:31.364Z,100143.82
2023-09-06T12:06:01.039Z,100142.67
2023-09-06T12:08:28.547Z,100147.75
2023-09-06T12:10:58.916Z,100138.98
2023-09-06T12:13:25.221Z,100137.77
2023-09-06T12:15:51.779Z,100133.00
2023-09-06T12:18:18.769Z,100136.52
2023-09-06T12:20:45.247Z,100133.02
2023-09-06T12:23:11.468Z,100136.86
2023-09-06T12:25:37.773Z,100133.08
2023-09-06T12:28:04.018Z,100131.21
2023-09-06T12:30:30.694Z,100127.01
2023-09-06T12:32:57.384Z,100130.19
2023-09-06T12:35:23.779Z,100131.14
2023-09-06T12:37:50.063Z,100129.11
2023-09-06T12:40:16.471Z,100125.13
2023-09-06T12:42:43.366Z,100124.80
2023-09-06T12:45:09.742Z,100120.44
2023-09-06T12:47:36.187Z,100118.30
2023-09-06T12:50:04.623Z,100120.55
2023-09-06T12:52:30.902Z,100116.19
2023-09-06T12:54:57.684Z,100115.48
2023-09-06T12:57:24.025Z,100107.16
2023-09-06T12:59:50.321Z,100104.66
2023-09-06T13:02:16.614Z,100099.91
2023-09-06T13:04:43.038Z,100095.54
2023-09-06T13:07:09.454Z,100097.98
2023-09-06T13:09:35.715Z,100095.59
2023-09-06T13:12:01.996Z,100091.52
2023-09-06T13:14:30.069Z,100091.44
2023-09-06T13:16:56.314Z,100090.23
2023-09-06T13:19:22.585Z,100090.17
2023-09-06T13:21:48.853Z,100091.59
2023-09-06T13:24:16.921Z,100080.39
2023-09-06T13:26:44.725Z,100081.48
2023-09-06T13:29:11.124Z,100078.58
2023-09-06T13:31:37.485Z,100077.69
2023-09-06T13:34:03.971Z,100078.39
2023-09-06T13:36:34.025Z,100072.60
2023-09-06T13:39:00.363Z,100070.45
2023-09-06T13:41:26.621Z,100068.67
2023-09-06T13:43:52.889Z,100064.11
2023-09-06T13:46:19.250Z,100061.60
2023-09-06T13:48:45.549Z,100059.77
2023-09-06T13:51:11.899Z,100059.73
2023-09-06T13:53:38.166Z,100055.45
2023-09-06T13:56:04.519Z,100053.35
2023-09-06T13:58:32.656Z,100050.33
2023-09-06T14:00:59.505Z,100044.61
2023-09-06T14:03:26.654Z,100043.73
2023-09-06T14:05:53.142Z,100041.66
2023-09-06T14:08:19.661Z,100046.06
2023-09-06T14:10:45.942Z,100048.98
2023-09-06T14:13:12.217Z,100046.42
2023-09-06T14:15:38.501Z,100040.98
2023-09-06T14:18:06.783Z,100036.55
2023-09-06T14:20:35.112Z,100039.66
2023-09-06T14:23:01.426Z,100038.86
2023-09-06T14:25:27.700Z,100038.83
2023-09-06T14:27:53.966Z,100037.17
2023-09-06T14:30:20.238Z,100035.51
2023-09-06T14:32:46.654Z,100036.02
2023-09-06T14:35:13.052Z,100037.23
2023-09-06T14:37:39.327Z,100033.87
2023-09-06T14:40:05.909Z,100039.38
2023-09-06T14:42:33.137Z,100035.92
2023-09-06T14:44:59.445Z,100033.89
2023-09-06T14:47:25.798Z,100030.09
2023-09-06T14:49:52.637Z,100029.26
2023-09-06T14:52:19.116Z,100030.80
2023-09-06T14:54:45.350Z,100030.91
2023-09-06T14:57:11.603Z,100026.54
2023-09-06T14:59:39.106Z,100024.38
2023-09-06T15:02:05.411Z,100027.78
2023-09-06T15:04:32.273Z,100029.19
2023-09-06T15:06:59.666Z,100030.64
2023-09-06T15:09:26.710Z,100028.88
2023-09-06T15:11:53.236Z,100029.88
2023-09-06T15:14:20.136Z,100031.86
2023-09-06T15:16:46.504Z,100034.46
2023-09-06T15:19:12.907Z,100034.61
2023-09-06T15:21:43.677Z,100035.21
2023-09-06T15:24:10.091Z,100034.77
2023-09-06T15:26:37.234Z,100029.75
2023-09-06T15:29:03.488Z,100034.45
2023-09-06T15:31:31.349Z,100029.99
2023-09-06T15:33:57.881Z,100032.46
2023-09-06T15:36:30.576Z,100035.52
2023-09-06T15:38:56.941Z,100033.13
2023-09-06T15:41:24.132Z,100037.15
2023-09-06T15:43:50.399Z,100037.64
2023-09-06T15:46:16.747Z,100042.64
2023-09-06T15:48:43.230Z,100041.67
2023-09-06T15:51:09.673Z,100038.05
2023-09-06T15:53:36.314Z,100039.21
2023-09-06T15:56:02.850Z,100037.96
2023-09-06T15:58:29.346Z,100039.66
2023-09-06T16:00:55.991Z,100041.60
2023-09-06T16:03:22.510Z,100040.27
2023-09-06T16:05:49.312Z,100038.92
2023-09-06T16:08:16.065Z,100041.67
2023-09-06T16:10:42.329Z,100037.90
2023-09-06T16:13:08.576Z,100040.42
2023-09-06T16:15:34.846Z,100040.58
2023-09-06T16:18:01.275Z,100045.98
2023-09-06T16:20:28.018Z,100046.90
2023-09-06T16:22:54.276Z,100049.36
2023-09-06T16:25:20.618Z,100051.61
2023-09-06T16:27:46.975Z,100052.30
2023-09-06T16:30:14.254Z,100057.11
2023-09-06T16:32:40.819Z,100058.53
2023-09-06T16:35:10.668Z,100059.02
2023-09-06T16:37:39.143Z,100059.20
2023-09-06T16:40:09.826Z,100060.98
2023-09-06T16:42:36.317Z,100055.65
2023-09-06T16:45:02.749Z,100055.64
2023-09-06T16:47:29.175Z,100061.16
2023-09-06T16:49:55.512Z,100055.98
2023-09-06T16:52:22.505Z,100056.13
2023-09-06T16:54:48.986Z,100053.46
2023-09-06T16:57:17.069Z,100055.31
2023-09-06T16:59:44.419Z,100052.10
2023-09-06T17:02:10.984Z,100054.86
2023-09-06T17:04:37.483Z,100060.10
2023-09-06T17:07:03.841Z,100058.42
2023-09-06T17:09:30.145Z,100057.79
2023-09-06T17:11:56.586Z,100059.52
2023-09-06T17:14:24.448Z,100062.45
2023-09-06T17:16:50.955Z,100057.88
2023-09-06T17:19:17.515Z,100062.52
2023-09-06T17:21:43.887Z,100067.57
2023-09-06T17:24:10.376Z,100070.58
2023-09-06T17:26:37.360Z,100071.31
2023-09-06T17:29:07.241Z,100072.27
2023-09-06T17:31:34.184Z,100077.67
2023-09-06T17:34:00.725Z,100075.67
2023-09-06T17:36:27.158Z,100080.39
2023-09-06T17:38:54.820Z,100084.86
2023-09-06T17:41:21.305Z,100087.74
2023-09-06T17:43:47.787Z,100088.16
2023-09-06T17:46:14.476Z,100089.30
2023-09-06T17:48:40.938Z,100093.29
2023-09-06T17:51:13.691Z,100096.17
2023-09-06T17:53:40.786Z,100107.11
2023-09-06T17:56:13.659Z,100109.07
2023-09-06T17:58:40.260Z,100108.59
2023-09-06T18:01:07.664Z,100109.31
2023-09-06T18:03:34.210Z,100114.34
2023-09-06T18:06:01.297Z,100120.17
2023-09-06T18:08:28.264Z,100116.27
2023-09-06T18:10:54.925Z,100121.55
2023-09-06T18:13:21.230Z,100121.73
2023-09-06T18:15:49.593Z,100113.65
2023-09-06T18:18:16.698Z,100116.01
2023-09-06T18:20:43.309Z,100114.41
2023-09-06T18:23:09.642Z,100115.84
2023-09-06T18:25:36.005Z,100117.09
2023-09-06T18:28:02.268Z,100113.75
2023-09-06T18:30:28.709Z,100115.77
2023-09-06T18:32:54.980Z,100119.26
2023-09-06T18:35:21.727Z,100118.66
2023-09-06T18:37:49.509Z,100119.84
2023-09-06T18:40:16.033Z,100121.75
2023-09-06T18:42:42.365Z,100117.80
2023-09-06T18:45:11.061Z,100120.92
2023-09-06T18:47:37.497Z,100116.15
2023-09-06T18:50:07.693Z,100116.36
2023-09-06T18:52:34.590Z,100121.09
2023-09-06T18:55:00.912Z,100125.66
2023-09-06T18:57:27.195Z,100124.73
2023-09-06T18:59:54.194Z,100125.30
2023-09-06T19:02:23.647Z,100128.27
2023-09-06T19:04:50.936Z,100125.24
2023-09-06T19:07:17.195Z,100120.08
2023-09-06T19:09:46.041Z,100123.51
2023-09-06T19:12:15.853Z,100120.64
2023-09-06T19:14:42.401Z,100125.58
2023-09-06T19:17:08.696Z,100127.08
2023-09-06T19:19:38.928Z,100123.81
2023-09-06T19:22:05.201Z,100124.50
2023-09-06T19:24:33.037Z,100126.16
2023-09-06T19:26:59.315Z,100124.29
2023-09-06T19:29:26.964Z,100128.23
2023-09-06T19:31:53.308Z,100132.50
2023-09-06T19:34:19.543Z,100128.16
2023-09-06T19:36:45.764Z,100130.97
2023-09-06T19:39:12.022Z,100128.12
2023-09-06T19:41:38.281Z,100129.52
2023-09-06T19:44:04.552Z,100124.05
2023-09-06T19:46:30.962Z,100126.75
2023-09-06T19:49:05.568Z,100127.88
2023-09-06T19:51:33.000Z,100128.97
2023-09-06T19:53:59.433Z,100130.64
2023-09-06T19:56:25.715Z,100128.94
2023-09-06T19:58:52.059Z,100134.89
2023-09-06T20:01:18.420Z,100139.95
2023-09-06T20:03:48.004Z,100136.36
2023-09-06T20:06:14.438Z,100140.52
2023-09-06T20:08:40.803Z,100139.69
2023-09-06T20:11:07.150Z,100136.96
2023-09-06T20:13:33.407Z,100140.41
2023-09-06T20:16:01.878Z,100139.59
2023-09-06T20:18:28.329Z,100140.90
2023-09-06T20:20:54.843Z,100138.48
2023-09-06T20:23:21.316Z,100140.30
2023-09-06T20:25:47.655Z,100139.09
2023-09-06T20:28:13.881Z,100135.10
2023-09-06T20:30:40.217Z,100136.15
2023-09-06T20:33:06.608Z,100135.31
2023-09-06T20:35:33.412Z,100141.74
2023-09-06T20:37:59.836Z,100140.52
2023-09-06T20:40:26.692Z,100140.74
2023-09-06T20:42:53.116Z,100137.27
2023-09-06T20:45:20.365Z,100139.98
2023-09-06T20:47:46.985Z,100139.22
2023-09-06T20:50:18.968Z,100137.55
2023-09-06T20:52:45.401Z,100137.05
2023-09-06T20:55:11.727Z,100136.05
2023-09-06T20:57:38.189Z,100134.73
2023-09-06T21:00:05.938Z,100136.40
2023-09-06T21:02:32.361Z,100132.95
2023-09-06T21:04:59.146Z,100131.23
2023-09-06T21:07:25.738Z,100131.61
2023-09-06T21:09:52.994Z,100135.41
2023-09-06T21:12:19.354Z,100133.21
2023-09-06T21:14:45.893Z,100131.30
2023-09-06T21:17:12.293Z,100130.63
2023-09-06T21:19:38.735Z,100128.74
2023-09-06T21:22:05.056Z,100124.55
2023-09-06T21:24:31.794Z,100126.17
2023-09-06T21:26:58.142Z,100132.24
2023-09-06T21:29:28.640Z,100130.90
2023-09-06T21:31:56.624Z,100133.97
2023-09-06T21:34:23.174Z,100134.85
2023-09-06T21:36:49.745Z,100132.30
2023-09-06T21:39:16.236Z,100139.95
2023-09-06T21:41:42.559Z,100142.29
2023-09-06T21:44:08.889Z,100141.63
2023-09-06T21:46:35.396Z,100146.80
2023-09-06T21:49:01.870Z,100148.48
2023-09-06T21:51:28.293Z,100150.14
2023-09-06T21:53:54.763Z,100155.80
2023-09-06T21:56:21.424Z,100156.57
2023-09-06T21:58:47.917Z,100158.58
2023-09-06T22:01:14.247Z,100155.98
2023-09-06T22:03:40.927Z,100154.30
2023-09-06T22:06:07.540Z,100154.02
2023-09-06T22:08:34.697Z,100155.88
2023-09-06T22:11:00.990Z,100158.75
2023-09-06T22:13:27.524Z,100159.49
2023-09-06T22:15:55.205Z,100164.56
2023-09-06T22:18:21.723Z,100163.86
2023-09-06T22:20:48.255Z,100168.13
2023-09-06T22:23:16.530Z,100172.20
2023-09-06T22:25:42.801Z,100176.66
2023-09-06T22:28:09.598Z,100176.05
2023-09-06T22:30:36.236Z,100179.83
2023-09-06T22:33:02.812Z,100181.30
2023-09-06T22:35:29.110Z,100182.77
2023-09-06T22:37:56.050Z,100183.81
2023-09-06T22:40:22.852Z,100188.39
2023-09-06T22:42:49.578Z,100186.13
2023-09-06T22:45:16.276Z,100187.05
2023-09-06T22:47:42.737Z,100186.70
2023-09-06T22:50:15.176Z,100185.16
2023-09-06T22:52:44.856Z,100185.73
2023-09-06T22:55:13.067Z,100188.34
2023-09-06T22:57:40.122Z,100187.00
2023-09-06T23:00:08.183Z,100183.13
2023-09-06T23:02:34.794Z,100187.02
2023-09-06T23:05:01.668Z,100178.25
2023-09-06T23:07:28.652Z,100178.95
2023-09-06T23:09:55.044Z,100182.86
2023-09-06T23:12:22.606Z,100183.44
2023-09-06T23:14:49.861Z,100185.61
2023-09-06T23:17:18.830Z,100187.95
2023-09-06T23:19:47.844Z,100185.04
2023-09-06T23:22:14.214Z,100186.98
2023-09-06T23:24:44.297Z,100186.16
2023-09-06T23:27:18.304Z,100187.27
2023-09-06T23:29:48.029Z,100186.45
2023-09-06T23:32:17.428Z,100190.55
2023-09-06T23:34:47.988Z,100187.43
2023-09-06T23:37:14.449Z,100195.76
2023-09-06T23:39:43.900Z,100196.54
2023-09-06T23:42:10.872Z,100195.33
2023-09-06T23:44:38.481Z,100198.67
2023-09-06T23:47:06.980Z,100204.70
2023-09-06T23:49:35.181Z,100198.54
2023-09-06T23:52:01.882Z,100203.13
2023-09-06T23:54:40.820Z,100204.94
2023-09-06T23:57:11.478Z,100204.83
2023-09-06T23:59:37.692Z,100204.38
